createdAt,value
2017-02-08T00:00:34.411Z,16.13
2017-02-08T00:01:44.727Z,16.1
2017-02-08T00:02:55.287Z,16.16
2017-02-08T00:04:05.590Z,16.18
2017-02-08T00:05:15.911Z,16.18
2017-02-08T00:06:26.625Z,16.26
2017-02-08T00:07:36.940Z,16.28
2017-02-08T00:08:47.912Z,16.22
2017-02-08T00:09:57.835Z,16.22
2017-02-08T00:11:08.174Z,16.12
2017-02-08T00:12:18.889Z,16.1
2017-02-08T00:13:29.214Z,16.26
2017-02-08T00:14:40.213Z,16.26
2017-02-08T00:15:50.532Z,16.31
2017-02-08T00:17:00.851Z,16.22
2017-02-08T00:18:11.574Z,16.1
2017-02-08T00:19:21.493Z,16.17
2017-02-08T00:20:32.092Z,16.06
2017-02-08T00:21:42.398Z,16.17
2017-02-08T00:22:52.715Z,16.25
2017-02-08T00:24:03.630Z,16.21
2017-02-08T00:25:13.164Z,16.26
2017-02-08T00:26:22.946Z,16.09
2017-02-08T00:27:33.256Z,16.06
2017-02-08T00:28:43.170Z,15.81
2017-02-08T00:29:53.083Z,15.96
2017-02-08T00:31:02.815Z,16
2017-02-08T00:32:13.409Z,16.21
2017-02-08T00:33:23.739Z,16.18
2017-02-08T00:34:34.446Z,16.16
2017-02-08T00:35:44.758Z,15.98
2017-02-08T00:36:55.057Z,16.06
2017-02-08T00:38:05.628Z,15.99
2017-02-08T00:39:16.341Z,15.9
2017-02-08T00:40:26.657Z,15.94
2017-02-08T00:41:36.590Z,16.03
2017-02-08T00:42:47.297Z,16.05
2017-02-08T00:43:57.458Z,16.12
2017-02-08T00:45:07.771Z,16.03
2017-02-08T00:46:17.687Z,16.16
2017-02-08T00:47:28.000Z,16.06
2017-02-08T00:48:37.908Z,16
2017-02-08T00:49:48.460Z,16
2017-02-08T00:50:58.791Z,15.88
2017-02-08T00:52:09.505Z,15.85
2017-02-08T00:53:19.419Z,15.94
2017-02-08T00:54:29.352Z,16
2017-02-08T00:55:39.508Z,15.99
2017-02-08T00:56:50.210Z,16.02
2017-02-08T00:58:00.155Z,16
2017-02-08T00:59:10.065Z,16.03
2017-02-08T01:00:20.762Z,16.21
2017-02-08T01:01:31.321Z,16.21
2017-02-08T01:02:42.023Z,16.02
2017-02-08T01:03:51.940Z,15.92
2017-02-08T01:05:01.865Z,15.88
2017-02-08T01:06:11.781Z,15.98
2017-02-08T01:07:21.953Z,16.16
2017-02-08T01:08:32.261Z,16.06
2017-02-08T01:09:42.571Z,16.16
2017-02-08T01:10:52.482Z,16.12
2017-02-08T01:12:02.778Z,16.09
2017-02-08T01:13:13.387Z,16.13
2017-02-08T01:14:23.701Z,16.02
2017-02-08T01:15:33.627Z,15.96
2017-02-08T01:16:43.947Z,15.87
2017-02-08T01:17:53.457Z,15.84
2017-02-08T01:19:03.669Z,15.96
2017-02-08T01:20:13.189Z,15.92
2017-02-08T01:21:23.108Z,15.98
2017-02-08T01:22:32.252Z,15.85
2017-02-08T01:23:42.564Z,16
2017-02-08T01:24:53.112Z,16.08
2017-02-08T01:26:03.019Z,16.06
2017-02-08T01:27:13.321Z,16.16
2017-02-08T01:28:23.234Z,16.12
2017-02-08T01:29:33.544Z,16.21
2017-02-08T01:30:44.501Z,16.09
2017-02-08T01:31:55.207Z,16.17
2017-02-08T01:33:05.914Z,16.1
2017-02-08T01:34:15.831Z,16.06
2017-02-08T01:35:25.740Z,16.12
2017-02-08T01:36:36.301Z,16.09
2017-02-08T01:37:46.602Z,15.94
2017-02-08T01:38:56.512Z,15.92
2017-02-08T01:40:06.432Z,15.75
2017-02-08T01:41:15.974Z,15.76
2017-02-08T01:42:26.970Z,15.81
2017-02-08T01:43:37.669Z,15.84
2017-02-08T01:44:47.984Z,15.73
2017-02-08T01:45:57.904Z,15.85
2017-02-08T01:47:08.210Z,15.84
2017-02-08T01:48:18.377Z,15.85
2017-02-08T01:49:28.681Z,15.87
2017-02-08T01:50:39.386Z,15.81
2017-02-08T01:51:49.341Z,15.76
2017-02-08T01:52:59.658Z,15.76
2017-02-08T01:54:10.669Z,15.76
2017-02-08T01:55:20.991Z,15.87
2017-02-08T01:56:30.521Z,15.88
2017-02-08T01:57:40.452Z,15.98
2017-02-08T01:58:50.371Z,16.03
2017-02-08T02:00:00.941Z,15.94
2017-02-08T02:01:11.251Z,16.06
2017-02-08T02:02:21.165Z,15.87
2017-02-08T02:03:31.462Z,15.98
2017-02-08T02:04:41.766Z,15.78
2017-02-08T02:05:51.929Z,15.8
2017-02-08T02:07:02.259Z,15.81
2017-02-08T02:08:12.567Z,15.78
2017-02-08T02:09:23.262Z,15.81
2017-02-08T02:10:33.560Z,15.81
2017-02-08T02:11:44.561Z,16.02
2017-02-08T02:12:54.876Z,16.03
2017-02-08T02:14:05.186Z,15.99
2017-02-08T02:15:15.099Z,16.12
2017-02-08T02:16:25.796Z,16.13
2017-02-08T02:17:36.408Z,16.09
2017-02-08T02:18:46.328Z,16.03
2017-02-08T02:19:55.841Z,15.84
2017-02-08T02:21:05.362Z,15.76
2017-02-08T02:22:15.275Z,15.85
2017-02-08T02:23:25.842Z,15.85
2017-02-08T02:24:36.138Z,15.91
2017-02-08T02:25:46.434Z,16.03
2017-02-08T02:26:57.131Z,15.84
2017-02-08T02:28:07.441Z,15.94
2017-02-08T02:29:17.984Z,15.98
2017-02-08T02:30:28.283Z,15.84
2017-02-08T02:31:38.622Z,15.73
2017-02-08T02:32:49.374Z,15.92
2017-02-08T02:33:59.797Z,16.03
2017-02-08T02:35:10.747Z,16.03
2017-02-08T02:36:20.654Z,16
2017-02-08T02:37:30.565Z,15.76
2017-02-08T02:38:40.871Z,15.94
2017-02-08T02:39:51.183Z,15.99
2017-02-08T02:41:01.352Z,16.06
2017-02-08T02:42:11.662Z,15.94
2017-02-08T02:43:21.980Z,16.03
2017-02-08T02:44:32.686Z,16.03
2017-02-08T02:45:42.603Z,16
2017-02-08T02:46:53.172Z,16.08
2017-02-08T02:48:02.699Z,16.03
2017-02-08T02:49:13.006Z,15.94
2017-02-08T02:50:22.915Z,16.03
2017-02-08T02:51:32.830Z,15.98
2017-02-08T02:52:42.995Z,16.02
2017-02-08T02:53:52.916Z,16.02
2017-02-08T02:55:03.223Z,16.05
2017-02-08T02:56:12.739Z,15.96
2017-02-08T02:57:22.259Z,15.78
2017-02-08T02:58:32.423Z,15.83
2017-02-08T02:59:42.732Z,15.81
2017-02-08T03:00:53.044Z,15.98
2017-02-08T03:02:03.354Z,15.99
2017-02-08T03:03:14.051Z,15.85
2017-02-08T03:04:25.017Z,15.91
2017-02-08T03:05:35.317Z,15.72
2017-02-08T03:06:46.014Z,15.84
2017-02-08T03:07:56.323Z,15.76
2017-02-08T03:09:07.030Z,15.83
2017-02-08T03:10:17.590Z,15.87
2017-02-08T03:11:27.892Z,15.8
2017-02-08T03:12:37.806Z,15.94
2017-02-08T03:13:48.511Z,15.92
2017-02-08T03:14:59.214Z,15.81
2017-02-08T03:16:09.779Z,15.78
2017-02-08T03:17:20.480Z,15.66
2017-02-08T03:18:30.392Z,15.81
2017-02-08T03:19:40.705Z,15.81
2017-02-08T03:20:50.621Z,15.76
2017-02-08T03:22:01.620Z,15.72
2017-02-08T03:23:12.327Z,15.81
2017-02-08T03:24:21.457Z,15.85
2017-02-08T03:25:31.367Z,15.92
2017-02-08T03:26:41.274Z,16
2017-02-08T03:27:52.221Z,15.98
2017-02-08T03:29:01.744Z,15.88
2017-02-08T03:30:12.747Z,15.83
2017-02-08T03:31:23.058Z,16.05
2017-02-08T03:32:33.373Z,16.02
2017-02-08T03:33:44.380Z,16.03
2017-02-08T03:34:55.075Z,16
2017-02-08T03:36:05.376Z,15.98
2017-02-08T03:37:15.687Z,15.98
2017-02-08T03:38:26.005Z,15.99
2017-02-08T03:39:36.170Z,16.05
2017-02-08T03:40:46.870Z,15.81
2017-02-08T03:41:57.171Z,15.81
2017-02-08T03:43:07.081Z,15.81
2017-02-08T03:44:17.425Z,15.9
2017-02-08T03:45:27.985Z,15.9
2017-02-08T03:46:38.282Z,15.87
2017-02-08T03:47:48.194Z,16
2017-02-08T03:48:58.503Z,16.05
2017-02-08T03:50:08.822Z,16.02
2017-02-08T03:51:18.983Z,15.94
2017-02-08T03:52:28.903Z,15.9
2017-02-08T03:53:39.200Z,15.81
2017-02-08T03:54:49.902Z,15.88
2017-02-08T03:56:00.606Z,15.76
2017-02-08T03:57:10.763Z,15.81
2017-02-08T03:58:21.073Z,15.54
2017-02-08T03:59:30.985Z,15.55
2017-02-08T04:00:41.295Z,15.67
2017-02-08T04:01:52.027Z,15.73
2017-02-08T04:03:02.990Z,15.87
2017-02-08T04:04:13.297Z,15.85
2017-02-08T04:05:23.211Z,15.81
2017-02-08T04:06:33.906Z,15.96
2017-02-08T04:07:44.623Z,15.98
2017-02-08T04:08:55.179Z,15.85
2017-02-08T04:10:05.491Z,15.91
2017-02-08T04:11:15.800Z,15.81
2017-02-08T04:12:26.101Z,15.8
2017-02-08T04:13:36.801Z,15.75
2017-02-08T04:14:47.413Z,15.76
2017-02-08T04:15:58.123Z,15.76
2017-02-08T04:17:08.831Z,15.85
2017-02-08T04:18:19.541Z,15.87
2017-02-08T04:19:29.846Z,15.91
2017-02-08T04:20:40.458Z,15.92
2017-02-08T04:21:51.167Z,15.9
2017-02-08T04:23:01.474Z,15.91
2017-02-08T04:24:12.164Z,15.84
2017-02-08T04:25:22.472Z,15.73
2017-02-08T04:26:33.407Z,15.76
2017-02-08T04:27:43.320Z,15.85
2017-02-08T04:28:54.021Z,15.91
2017-02-08T04:30:04.321Z,15.73
2017-02-08T04:31:14.626Z,15.81
2017-02-08T04:32:25.231Z,15.66
2017-02-08T04:33:35.931Z,15.6
2017-02-08T04:34:45.848Z,15.73
2017-02-08T04:35:56.155Z,15.75
2017-02-08T04:37:06.471Z,15.85
2017-02-08T04:38:17.415Z,15.91
2017-02-08T04:39:27.725Z,15.81
2017-02-08T04:40:38.440Z,15.83
2017-02-08T04:41:47.955Z,15.84
2017-02-08T04:42:58.268Z,15.78
2017-02-08T04:44:09.263Z,15.76
2017-02-08T04:45:19.177Z,15.75
2017-02-08T04:46:29.091Z,15.81
2017-02-08T04:47:39.394Z,15.84
2017-02-08T04:48:49.310Z,15.73
2017-02-08T04:49:59.490Z,15.69
2017-02-08T04:51:09.803Z,15.54
2017-02-08T04:52:20.110Z,15.51
2017-02-08T04:53:30.438Z,15.5
2017-02-08T04:54:41.183Z,15.51
2017-02-08T04:55:51.735Z,15.52
2017-02-08T04:57:02.435Z,15.48
2017-02-08T04:58:12.731Z,15.43
2017-02-08T04:59:23.427Z,15.5
2017-02-08T05:00:34.133Z,15.6
2017-02-08T05:01:45.092Z,15.52
2017-02-08T05:02:55.803Z,15.6
2017-02-08T05:04:06.505Z,15.55
2017-02-08T05:05:17.219Z,15.54
2017-02-08T05:06:27.929Z,15.5
2017-02-08T05:07:38.533Z,15.51
2017-02-08T05:08:48.837Z,15.59
2017-02-08T05:09:59.592Z,15.54
2017-02-08T05:11:10.297Z,15.66
2017-02-08T05:12:19.807Z,15.65
2017-02-08T05:13:30.369Z,15.54
2017-02-08T05:14:41.094Z,15.66
2017-02-08T05:15:51.403Z,15.65
2017-02-08T05:17:01.718Z,15.67
2017-02-08T05:18:11.633Z,15.6
2017-02-08T05:19:21.397Z,15.59
2017-02-08T05:20:31.711Z,15.67
2017-02-08T05:21:41.622Z,15.62
2017-02-08T05:22:51.941Z,15.65
2017-02-08T05:24:02.646Z,15.55
2017-02-08T05:25:13.596Z,15.51
2017-02-08T05:26:23.897Z,15.5
2017-02-08T05:27:33.813Z,15.55
2017-02-08T05:28:44.141Z,15.51
2017-02-08T05:29:54.454Z,15.51
2017-02-08T05:31:04.223Z,15.5
2017-02-08T05:32:14.549Z,15.62
2017-02-08T05:33:24.870Z,15.6
2017-02-08T05:34:35.177Z,15.47
2017-02-08T05:35:45.484Z,15.48
2017-02-08T05:36:56.048Z,15.55
2017-02-08T05:38:06.373Z,15.51
2017-02-08T05:39:16.682Z,15.43
2017-02-08T05:40:27.394Z,15.3
2017-02-08T05:41:37.706Z,15.35
2017-02-08T05:42:48.262Z,15.35
2017-02-08T05:43:58.976Z,15.36
2017-02-08T05:45:09.286Z,15.36
2017-02-08T05:46:20.012Z,15.45
2017-02-08T05:47:30.320Z,15.43
2017-02-08T05:48:41.279Z,15.44
2017-02-08T05:49:51.971Z,15.3
2017-02-08T05:51:02.298Z,15.27
2017-02-08T05:52:12.613Z,15.3
2017-02-08T05:53:22.918Z,15.26
2017-02-08T05:54:33.081Z,15.39
2017-02-08T05:55:43.392Z,15.45
2017-02-08T05:56:54.118Z,15.45
2017-02-08T05:58:04.840Z,15.36
2017-02-08T05:59:14.768Z,15.37
2017-02-08T06:00:25.731Z,15.36
2017-02-08T06:01:36.433Z,15.39
2017-02-08T06:02:46.742Z,15.35
2017-02-08T06:03:57.470Z,15.36
2017-02-08T06:05:08.182Z,15.36
2017-02-08T06:06:18.336Z,15.41
2017-02-08T06:07:28.643Z,15.43
2017-02-08T06:08:39.357Z,15.54
2017-02-08T06:09:49.664Z,15.44
2017-02-08T06:10:59.971Z,15.43
2017-02-08T06:12:10.927Z,15.54
2017-02-08T06:13:21.633Z,15.47
2017-02-08T06:14:31.949Z,15.51
2017-02-08T06:15:42.292Z,15.51
2017-02-08T06:16:52.602Z,15.45
2017-02-08T06:18:03.158Z,15.52
2017-02-08T06:19:13.476Z,15.59
2017-02-08T06:20:23.786Z,15.5
2017-02-08T06:21:33.959Z,15.52
2017-02-08T06:22:44.666Z,15.48
2017-02-08T06:23:55.617Z,15.52
2017-02-08T06:25:06.486Z,15.5
2017-02-08T06:26:17.191Z,15.48
2017-02-08T06:27:27.905Z,15.45
2017-02-08T06:28:38.220Z,15.39
2017-02-08T06:29:49.174Z,15.44
2017-02-08T06:31:00.773Z,15.35
2017-02-08T06:32:11.494Z,15.26
2017-02-08T06:33:21.836Z,15.26
2017-02-08T06:34:32.545Z,15.36
2017-02-08T06:35:43.505Z,15.36
2017-02-08T06:36:53.815Z,15.41
2017-02-08T06:38:03.807Z,15.44
2017-02-08T06:39:13.729Z,15.5
2017-02-08T06:40:24.446Z,15.44
2017-02-08T06:41:35.411Z,15.51
2017-02-08T06:42:46.110Z,15.48
2017-02-08T06:43:56.819Z,15.32
2017-02-08T06:45:07.552Z,15.37
2017-02-08T06:46:18.292Z,15.36
2017-02-08T06:47:29.262Z,15.36
2017-02-08T06:48:39.967Z,15.37
2017-02-08T06:49:50.279Z,15.55
2017-02-08T06:51:00.992Z,15.44
2017-02-08T06:52:10.525Z,15.47
2017-02-08T06:53:21.490Z,15.52
2017-02-08T06:54:31.804Z,15.51
2017-02-08T06:55:42.540Z,15.48
2017-02-08T06:56:52.065Z,15.54
2017-02-08T06:58:02.771Z,15.55
2017-02-08T06:59:13.716Z,15.57
2017-02-08T07:00:24.433Z,15.52
2017-02-08T07:01:34.759Z,15.57
2017-02-08T07:02:45.079Z,15.51
2017-02-08T07:03:55.380Z,15.54
2017-02-08T07:05:05.953Z,15.62
2017-02-08T07:06:16.688Z,15.52
2017-02-08T07:07:27.404Z,15.62
2017-02-08T07:08:37.716Z,15.51
2017-02-08T07:09:48.032Z,15.52
2017-02-08T07:10:58.996Z,15.5
2017-02-08T07:12:09.319Z,15.5
2017-02-08T07:13:20.039Z,15.54
2017-02-08T07:14:30.359Z,15.63
2017-02-08T07:15:39.892Z,15.57
2017-02-08T07:16:50.914Z,15.45
2017-02-08T07:18:01.661Z,15.47
2017-02-08T07:19:12.369Z,15.51
2017-02-08T07:20:22.708Z,15.47
2017-02-08T07:21:33.446Z,15.45
2017-02-08T07:22:44.016Z,15.48
2017-02-08T07:23:54.351Z,15.44
2017-02-08T07:25:05.078Z,15.44
2017-02-08T07:26:15.817Z,15.48
2017-02-08T07:27:26.134Z,15.37
2017-02-08T07:28:35.915Z,15.59
2017-02-08T07:29:46.620Z,15.57
2017-02-08T07:30:56.930Z,15.48
2017-02-08T07:32:07.643Z,15.45
2017-02-08T07:33:18.370Z,15.45
2017-02-08T07:34:28.963Z,15.43
2017-02-08T07:35:39.282Z,15.36
2017-02-08T07:36:50.147Z,15.63
2017-02-08T07:38:00.499Z,15.52
2017-02-08T07:39:11.247Z,15.5
2017-02-08T07:40:21.814Z,15.57
2017-02-08T07:41:32.524Z,15.52
2017-02-08T07:42:42.889Z,15.59
2017-02-08T07:43:53.216Z,15.63
2017-02-08T07:45:03.926Z,15.59
2017-02-08T07:46:14.248Z,15.51
2017-02-08T07:47:24.981Z,15.5
2017-02-08T07:48:35.740Z,15.51
2017-02-08T07:49:46.071Z,15.54
2017-02-08T07:50:56.392Z,15.52
2017-02-08T07:52:06.994Z,15.47
2017-02-08T07:53:16.929Z,15.48
2017-02-08T07:54:27.259Z,15.36
2017-02-08T07:55:37.576Z,15.36
2017-02-08T07:56:48.300Z,15.52
2017-02-08T07:57:59.263Z,15.54
2017-02-08T07:59:09.592Z,15.57
2017-02-08T08:00:20.302Z,15.48
2017-02-08T08:01:31.151Z,15.44
2017-02-08T08:02:41.885Z,15.39
2017-02-08T08:03:52.063Z,15.43
2017-02-08T08:05:02.785Z,15.33
2017-02-08T08:06:12.734Z,15.52
2017-02-08T08:07:23.483Z,15.54
2017-02-08T08:08:33.413Z,15.6
2017-02-08T08:09:44.034Z,15.66
2017-02-08T08:10:54.359Z,15.55
2017-02-08T08:12:05.094Z,15.62
2017-02-08T08:13:14.644Z,15.55
2017-02-08T08:14:24.960Z,15.51
2017-02-08T08:15:35.946Z,15.51
2017-02-08T08:16:46.672Z,15.57
2017-02-08T08:17:57.644Z,15.57
2017-02-08T08:19:08.362Z,15.65
2017-02-08T08:20:18.682Z,15.66
2017-02-08T08:21:28.911Z,15.73
2017-02-08T08:22:39.628Z,15.72
2017-02-08T08:23:50.362Z,15.66
2017-02-08T08:25:01.074Z,15.76
2017-02-08T08:26:11.776Z,15.62
2017-02-08T08:27:22.358Z,15.75
2017-02-08T08:28:32.687Z,15.78
2017-02-08T08:29:43.001Z,15.63
2017-02-08T08:30:53.719Z,15.75
2017-02-08T08:32:03.660Z,15.65
2017-02-08T08:33:14.265Z,15.75
2017-02-08T08:34:24.971Z,15.8
2017-02-08T08:35:35.287Z,15.66
2017-02-08T08:36:45.993Z,15.72
2017-02-08T08:37:56.314Z,15.76
2017-02-08T08:39:06.927Z,15.73
2017-02-08T08:40:17.637Z,15.76
2017-02-08T08:41:27.173Z,15.75
2017-02-08T08:42:37.096Z,15.91
2017-02-08T08:43:48.120Z,15.76
2017-02-08T08:44:59.150Z,15.76
2017-02-08T08:46:09.532Z,15.76
2017-02-08T08:47:20.308Z,15.73
2017-02-08T08:48:30.651Z,15.8
2017-02-08T08:49:41.411Z,15.73
2017-02-08T08:50:51.989Z,15.76
2017-02-08T08:52:01.545Z,15.72
2017-02-08T08:53:11.894Z,15.73
2017-02-08T08:54:22.645Z,15.8
2017-02-08T08:55:33.205Z,15.76
2017-02-08T08:56:44.468Z,15.88
2017-02-08T08:57:54.860Z,15.96
2017-02-08T08:59:05.192Z,15.91
2017-02-08T09:00:15.945Z,15.91
2017-02-08T09:01:26.722Z,15.73
2017-02-08T09:02:37.711Z,15.8
2017-02-08T09:03:48.486Z,15.76
2017-02-08T09:04:59.228Z,15.73
2017-02-08T09:06:09.550Z,15.87
2017-02-08T09:07:20.278Z,15.9
2017-02-08T09:08:30.879Z,15.87
2017-02-08T09:09:41.629Z,15.7
2017-02-08T09:10:52.255Z,15.84
2017-02-08T09:12:03.033Z,15.88
2017-02-08T09:13:14.263Z,15.9
2017-02-08T09:14:25.552Z,15.84
2017-02-08T09:15:36.329Z,15.84
2017-02-08T09:16:46.694Z,15.87
2017-02-08T09:17:56.640Z,15.96
2017-02-08T09:19:06.864Z,15.85
2017-02-08T09:20:17.719Z,15.91
2017-02-08T09:21:28.448Z,15.91
2017-02-08T09:22:38.800Z,15.9
2017-02-08T09:23:49.527Z,15.75
2017-02-08T09:24:59.850Z,15.73
2017-02-08T09:26:10.883Z,15.76
2017-02-08T09:27:21.632Z,15.75
2017-02-08T09:28:32.424Z,15.73
2017-02-08T09:29:42.873Z,15.88
2017-02-08T09:30:53.597Z,15.76
2017-02-08T09:32:04.554Z,15.83
2017-02-08T09:33:14.915Z,15.84
2017-02-08T09:34:25.243Z,15.83
2017-02-08T09:35:35.566Z,15.83
2017-02-08T09:36:45.897Z,15.85
2017-02-08T09:37:56.508Z,16
2017-02-08T09:39:07.246Z,15.98
2017-02-08T09:40:17.992Z,16
2017-02-08T09:41:28.714Z,15.92
2017-02-08T09:42:39.026Z,15.92
2017-02-08T09:43:49.799Z,16.06
2017-02-08T09:45:00.748Z,16
2017-02-08T09:46:11.481Z,16.05
2017-02-08T09:47:21.835Z,16.03
2017-02-08T09:48:32.206Z,16.05
2017-02-08T09:49:43.179Z,16.06
2017-02-08T09:50:53.909Z,15.94
2017-02-08T09:52:04.254Z,16.05
2017-02-08T09:53:14.602Z,16.03
2017-02-08T09:54:25.344Z,16
2017-02-08T09:55:36.396Z,15.98
2017-02-08T09:56:46.315Z,16.02
2017-02-08T09:57:56.267Z,16
2017-02-08T09:59:06.618Z,16.02
2017-02-08T10:00:17.364Z,16
2017-02-08T10:01:27.998Z,16
2017-02-08T10:02:38.831Z,16.06
2017-02-08T10:03:49.155Z,16.05
2017-02-08T10:04:59.092Z,16.12
2017-02-08T10:06:09.433Z,16.09
2017-02-08T10:07:20.181Z,16.18
2017-02-08T10:08:30.987Z,16.25
2017-02-08T10:09:41.719Z,16.17
2017-02-08T10:10:52.063Z,16.25
2017-02-08T10:12:02.659Z,16.17
2017-02-08T10:13:13.390Z,16.12
2017-02-08T10:14:24.105Z,16.12
2017-02-08T10:15:34.485Z,16.06
2017-02-08T10:16:44.799Z,16.12
2017-02-08T10:17:55.779Z,16.1
2017-02-08T10:19:06.512Z,16.25
2017-02-08T10:20:16.850Z,16.21
2017-02-08T10:21:27.590Z,16.29
2017-02-08T10:22:37.904Z,16.37
2017-02-08T10:23:48.479Z,16.25
2017-02-08T10:24:58.804Z,16.22
2017-02-08T10:26:09.532Z,16.31
2017-02-08T10:27:20.249Z,16.31
2017-02-08T10:28:30.972Z,16.37
2017-02-08T10:29:41.552Z,16.44
2017-02-08T10:30:51.887Z,16.37
2017-02-08T10:32:02.607Z,16.39
2017-02-08T10:33:13.323Z,16.44
2017-02-08T10:34:24.035Z,16.4
2017-02-08T10:35:34.650Z,16.34
2017-02-08T10:36:45.366Z,16.43
2017-02-08T10:37:55.283Z,16.44
2017-02-08T10:39:05.605Z,16.51
2017-02-08T10:40:15.924Z,16.44
2017-02-08T10:41:26.894Z,16.37
2017-02-08T10:42:37.233Z,16.43
2017-02-08T10:43:47.143Z,16.37
2017-02-08T10:44:57.460Z,16.47
2017-02-08T10:46:08.165Z,16.34
2017-02-08T10:47:18.739Z,16.44
2017-02-08T10:48:29.052Z,16.39
2017-02-08T10:49:39.788Z,16.44
2017-02-08T10:50:50.504Z,16.32
2017-02-08T10:52:01.210Z,16.37
2017-02-08T10:53:11.762Z,16.37
2017-02-08T10:54:22.474Z,16.43
2017-02-08T10:55:33.198Z,16.36
2017-02-08T10:56:43.111Z,16.31
2017-02-08T10:57:53.423Z,16.29
2017-02-08T10:59:04.046Z,16.32
2017-02-08T11:00:14.849Z,16.26
2017-02-08T11:01:25.607Z,16.36
2017-02-08T11:02:36.327Z,16.36
2017-02-08T11:03:46.252Z,16.34
2017-02-08T11:04:57.275Z,16.44
2017-02-08T11:06:08.005Z,16.47
2017-02-08T11:07:18.375Z,16.41
2017-02-08T11:08:29.095Z,16.44
2017-02-08T11:09:39.809Z,16.44
2017-02-08T11:10:50.027Z,16.54
2017-02-08T11:12:00.342Z,16.61
2017-02-08T11:13:10.657Z,16.57
2017-02-08T11:14:20.967Z,16.49
2017-02-08T11:15:31.297Z,16.47
2017-02-08T11:16:41.863Z,16.4
2017-02-08T11:17:51.799Z,16.43
2017-02-08T11:19:01.710Z,16.44
2017-02-08T11:20:12.020Z,16.46
2017-02-08T11:21:22.734Z,16.4
2017-02-08T11:22:33.309Z,16.41
2017-02-08T11:23:43.229Z,16.41
2017-02-08T11:24:53.554Z,16.37
2017-02-08T11:26:03.080Z,16.46
2017-02-08T11:27:13.786Z,16.49
2017-02-08T11:28:24.996Z,16.69
2017-02-08T11:29:35.710Z,16.66
2017-02-08T11:30:46.021Z,16.69
2017-02-08T11:31:56.756Z,16.68
2017-02-08T11:33:07.482Z,16.77
2017-02-08T11:34:18.453Z,16.73
2017-02-08T11:35:28.389Z,16.65
2017-02-08T11:36:39.108Z,16.57
2017-02-08T11:37:49.427Z,16.58
2017-02-08T11:38:59.780Z,16.74
2017-02-08T11:40:10.698Z,16.77
2017-02-08T11:41:21.497Z,16.87
2017-02-08T11:42:32.381Z,16.8
2017-02-08T11:43:42.713Z,16.83
2017-02-08T11:44:53.059Z,16.77
2017-02-08T11:46:03.643Z,16.76
2017-02-08T11:47:14.400Z,16.65
2017-02-08T11:48:25.143Z,16.66
2017-02-08T11:49:35.873Z,16.76
2017-02-08T11:50:46.583Z,16.77
2017-02-08T11:51:57.553Z,16.86
2017-02-08T11:53:08.265Z,16.72
2017-02-08T11:54:18.990Z,16.58
2017-02-08T11:55:29.715Z,16.51
2017-02-08T11:56:40.419Z,16.73
2017-02-08T11:57:51.009Z,16.72
2017-02-08T11:59:01.777Z,16.68
2017-02-08T12:00:12.490Z,16.65
2017-02-08T12:01:23.211Z,16.61
2017-02-08T12:02:33.977Z,16.54
2017-02-08T12:03:44.560Z,16.62
2017-02-08T12:04:55.287Z,16.55
2017-02-08T12:06:05.606Z,16.49
2017-02-08T12:07:15.530Z,16.59
2017-02-08T12:08:25.852Z,16.68
2017-02-08T12:09:36.437Z,16.68
2017-02-08T12:10:47.172Z,16.73
2017-02-08T12:11:57.895Z,16.8
2017-02-08T12:13:08.222Z,16.84
2017-02-08T12:14:18.553Z,16.69
2017-02-08T12:15:29.540Z,16.69
2017-02-08T12:16:39.869Z,16.73
2017-02-08T12:17:50.194Z,16.76
2017-02-08T12:18:58.938Z,16.72
2017-02-08T12:20:09.667Z,16.59
2017-02-08T12:21:20.301Z,16.68
2017-02-08T12:22:31.034Z,16.73
2017-02-08T12:23:41.392Z,16.72
2017-02-08T12:24:52.119Z,16.68
2017-02-08T12:26:02.445Z,16.72
2017-02-08T12:27:13.424Z,16.74
2017-02-08T12:28:24.157Z,16.68
2017-02-08T12:29:34.918Z,16.68
2017-02-08T12:30:45.633Z,16.8
2017-02-08T12:31:56.362Z,16.69
2017-02-08T12:33:07.392Z,16.68
2017-02-08T12:34:18.122Z,16.79
2017-02-08T12:35:28.445Z,16.69
2017-02-08T12:36:38.367Z,16.73
2017-02-08T12:37:49.117Z,16.66
2017-02-08T12:39:00.148Z,16.59
2017-02-08T12:40:10.487Z,16.51
2017-02-08T12:41:20.406Z,16.58
2017-02-08T12:42:30.736Z,16.55
2017-02-08T12:43:41.469Z,16.47
2017-02-08T12:44:52.487Z,16.51
2017-02-08T12:46:03.214Z,16.55
2017-02-08T12:47:13.542Z,16.68
2017-02-08T12:48:24.259Z,16.5
2017-02-08T12:49:34.962Z,16.59
2017-02-08T12:50:45.940Z,16.51
2017-02-08T12:51:56.292Z,16.46
2017-02-08T12:53:07.005Z,16.47
2017-02-08T12:54:17.343Z,16.36
2017-02-08T12:55:27.270Z,16.49
2017-02-08T12:56:38.234Z,16.34
2017-02-08T12:57:48.544Z,16.46
2017-02-08T12:58:58.868Z,16.46
2017-02-08T13:00:09.604Z,16.46
2017-02-08T13:01:20.343Z,16.34
2017-02-08T13:02:30.864Z,16.39
2017-02-08T13:03:41.584Z,16.4
2017-02-08T13:04:51.896Z,16.32
2017-02-08T13:06:02.620Z,16.29
2017-02-08T13:07:12.923Z,16.46
2017-02-08T13:08:23.913Z,16.4
2017-02-08T13:09:34.625Z,16.39
2017-02-08T13:10:45.345Z,16.37
2017-02-08T13:11:55.687Z,16.44
2017-02-08T13:13:06.009Z,16.37
2017-02-08T13:14:16.581Z,16.39
2017-02-08T13:15:27.309Z,16.34
2017-02-08T13:16:38.018Z,16.46
2017-02-08T13:17:48.723Z,16.4
2017-02-08T13:18:59.447Z,16.4
2017-02-08T13:20:10.424Z,16.36
2017-02-08T13:21:20.746Z,16.34
2017-02-08T13:22:31.479Z,16.43
2017-02-08T13:23:41.792Z,16.37
2017-02-08T13:24:52.515Z,16.37
2017-02-08T13:26:03.500Z,16.39
2017-02-08T13:27:14.221Z,16.39
2017-02-08T13:28:24.943Z,16.41
2017-02-08T13:29:34.463Z,16.39
2017-02-08T13:30:45.170Z,16.39
2017-02-08T13:31:55.788Z,16.37
2017-02-08T13:33:05.706Z,16.31
2017-02-08T13:34:15.619Z,16.31
2017-02-08T13:35:25.940Z,16.37
2017-02-08T13:36:35.865Z,16.34
2017-02-08T13:37:46.835Z,16.41
2017-02-08T13:38:56.757Z,16.31
2017-02-08T13:40:07.479Z,16.34
2017-02-08T13:41:18.211Z,16.37
2017-02-08T13:42:28.552Z,16.31
2017-02-08T13:43:39.731Z,16.29
2017-02-08T13:44:50.487Z,16.34
2017-02-08T13:46:01.217Z,16.41
2017-02-08T13:47:11.951Z,16.39
2017-02-08T13:48:22.756Z,16.46
2017-02-08T13:49:33.748Z,16.34
2017-02-08T13:50:44.471Z,16.44
2017-02-08T13:51:55.194Z,16.4
2017-02-08T13:53:05.904Z,16.46
2017-02-08T13:54:16.627Z,16.46
2017-02-08T13:55:26.967Z,16.4
2017-02-08T13:56:37.699Z,16.44
2017-02-08T13:57:48.428Z,16.37
2017-02-08T13:58:59.171Z,16.46
2017-02-08T14:00:09.754Z,16.54
2017-02-08T14:01:20.077Z,16.46
2017-02-08T14:02:30.788Z,16.54
2017-02-08T14:03:41.524Z,16.54
2017-02-08T14:04:52.240Z,16.41
2017-02-08T14:06:03.228Z,16.4
2017-02-08T14:07:13.966Z,16.46
2017-02-08T14:08:24.300Z,16.5
2017-02-08T14:09:35.078Z,16.41
2017-02-08T14:10:45.830Z,16.47
2017-02-08T14:11:56.848Z,16.58
2017-02-08T14:13:07.575Z,16.41
2017-02-08T14:14:17.946Z,16.46
2017-02-08T14:15:28.651Z,16.57
2017-02-08T14:16:39.363Z,16.49
2017-02-08T14:17:49.945Z,16.5
2017-02-08T14:19:00.669Z,16.43
2017-02-08T14:20:11.394Z,16.46
2017-02-08T14:21:22.116Z,16.32
2017-02-08T14:22:32.842Z,16.4
2017-02-08T14:23:43.462Z,16.46
2017-02-08T14:24:53.782Z,16.4
2017-02-08T14:26:04.518Z,16.47
2017-02-08T14:27:14.860Z,16.43
2017-02-08T14:28:25.599Z,16.32
2017-02-08T14:29:36.619Z,16.46
2017-02-08T14:30:47.440Z,16.4
2017-02-08T14:33:57.793Z,16.31
2017-02-08T14:39:07.655Z,16.32
2017-02-08T14:42:18.253Z,16.36
2017-02-08T14:43:28.983Z,16.32
2017-02-08T14:44:39.716Z,16.32
2017-02-08T14:45:50.067Z,16.26
2017-02-08T14:47:00.783Z,16.34
2017-02-08T14:48:11.789Z,16.31
2017-02-08T14:49:22.515Z,16.29
2017-02-08T14:50:32.844Z,16.34
2017-02-08T14:51:43.797Z,16.34
2017-02-08T14:52:54.179Z,16.34
2017-02-08T14:54:05.148Z,16.37
2017-02-08T14:55:15.862Z,16.36
2017-02-08T14:56:26.585Z,16.41
2017-02-08T14:57:37.314Z,16.36
2017-02-08T14:58:48.028Z,16.31
2017-02-08T14:59:58.758Z,16.36
2017-02-08T15:01:08.940Z,16.28
2017-02-08T15:02:19.651Z,16.34
2017-02-08T15:03:30.381Z,16.32
2017-02-08T15:04:40.950Z,16.26
2017-02-08T15:05:52.118Z,16.25
2017-02-08T15:07:02.832Z,16.25
2017-02-08T15:08:13.161Z,16.26
2017-02-08T15:09:23.481Z,16.25
2017-02-08T15:10:34.037Z,16.22
2017-02-08T15:11:44.358Z,16.08
2017-02-08T15:12:54.677Z,16.06
2017-02-08T15:14:05.408Z,16.26
2017-02-08T15:15:15.728Z,16.29
2017-02-08T15:16:26.704Z,16.21
2017-02-08T15:17:37.435Z,16.24
2017-02-08T15:18:48.160Z,16.21
2017-02-08T15:19:58.490Z,16.22